Time;durP1;ratioP1;P1;durP2;ratioP2;P2;SDS_P1;SDS_P2;PMS_P1;PMS_P2;Temp;Humidity;BMP_temperature;BMP_pressure;BME280_temperature;BME280_humidity;BME280_pressure;Samples;Min_cycle;Max_cycle;Signal;HPM_P1;HPM_P2
2022/04/24 00:02:00;;;;;;;5.55;3.30;;;15.40;62.30;;;;;;5035310;28;20450;-85
2022/04/24 00:04:26;;;;;;;4.63;3.30;;;15.40;62.60;;;;;;5000279;28;20028;-85
2022/04/24 00:06:53;;;;;;;4.72;3.40;;;15.40;62.90;;;;;;5017416;28;20037;-85
2022/04/24 00:09:20;;;;;;;5.00;3.08;;;15.30;63.00;;;;;;5017849;28;20036;-85
2022/04/24 00:11:45;;;;;;;6.10;3.20;;;15.30;63.50;;;;;;5017767;28;20025;-87
2022/04/24 00:14:11;;;;;;;4.68;3.80;;;15.30;63.80;;;;;;5017817;28;20376;-85
2022/04/24 00:16:38;;;;;;;6.45;4.10;;;15.30;63.90;;;;;;5017527;28;20543;-85
2022/04/24 00:19:04;;;;;;;5.72;3.40;;;15.30;64.50;;;;;;5035069;28;20026;-85
2022/04/24 00:21:30;;;;;;;5.35;3.30;;;15.20;64.60;;;;;;5017904;28;20117;-85
2022/04/24 00:23:56;;;;;;;5.47;3.80;;;15.30;64.70;;;;;;5017460;28;20033;-85
2022/04/24 00:26:22;;;;;;;5.07;3.97;;;15.20;64.80;;;;;;5001257;28;20427;-85
2022/04/24 00:28:48;;;;;;;6.10;4.05;;;15.20;64.90;;;;;;5000922;28;20120;-86
2022/04/24 00:31:13;;;;;;;6.43;4.22;;;15.20;65.00;;;;;;5017288;28;20049;-86
2022/04/24 00:33:39;;;;;;;5.45;4.18;;;15.10;64.90;;;;;;5000987;28;20101;-85
2022/04/24 00:36:05;;;;;;;6.90;3.70;;;15.10;65.10;;;;;;5034738;28;20034;-86
2022/04/24 00:38:35;;;;;;;6.65;4.32;;;15.10;65.10;;;;;;5017413;28;20036;-85
2022/04/24 00:41:02;;;;;;;6.13;3.70;;;15.10;65.00;;;;;;5034717;28;20033;-85
2022/04/24 00:43:28;;;;;;;5.28;4.03;;;15.00;64.90;;;;;;5016841;28;20022;-85
2022/04/24 00:46:08;;;;;;;6.63;4.20;;;15.00;65.20;;;;;;5016861;28;20040;-86
2022/04/24 00:48:34;;;;;;;6.20;4.37;;;15.00;65.30;;;;;;5017022;28;20048;-85
2022/04/24 00:51:00;;;;;;;5.57;4.35;;;14.90;65.40;;;;;;5000465;28;20079;-85
2022/04/24 00:53:25;;;;;;;6.53;4.28;;;14.90;65.30;;;;;;5016755;28;20033;-85
2022/04/24 00:55:52;;;;;;;8.00;4.97;;;14.80;65.40;;;;;;5016834;28;20038;-86
2022/04/24 00:58:18;;;;;;;6.53;4.40;;;14.80;65.40;;;;;;5034435;28;20092;-85
2022/04/24 01:00:44;;;;;;;7.05;4.15;;;14.80;65.60;;;;;;5016372;28;20144;-85
2022/04/24 01:03:12;;;;;;;7.68;4.38;;;14.70;65.70;;;;;;5000087;28;20239;-85
2022/04/24 01:05:38;;;;;;;5.43;4.30;;;14.70;65.90;;;;;;5016516;28;20036;-85
2022/04/24 01:08:04;;;;;;;5.78;4.53;;;14.70;66.00;;;;;;5000045;28;20029;-85
2022/04/24 01:10:37;;;;;;;6.32;4.53;;;14.70;66.00;;;;;;5000401;28;20035;-85
2022/04/24 01:13:03;;;;;;;6.40;5.05;;;14.70;66.00;;;;;;5016189;28;20035;-85
2022/04/24 01:15:29;;;;;;;8.20;5.15;;;14.60;66.00;;;;;;5033995;28;20120;-85
2022/04/24 01:17:56;;;;;;;6.70;4.88;;;14.60;66.40;;;;;;4983922;28;20050;-85
2022/04/24 01:20:22;;;;;;;6.57;4.65;;;14.50;66.70;;;;;;5016233;28;20366;-85
2022/04/24 01:22:48;;;;;;;6.45;4.90;;;14.50;66.70;;;;;;4999997;28;20059;-85
2022/04/24 01:25:14;;;;;;;7.18;4.80;;;14.50;66.80;;;;;;4999736;28;20071;-85
2022/04/24 01:27:40;;;;;;;8.00;4.78;;;14.50;66.70;;;;;;5015935;28;20199;-85
2022/04/24 01:30:06;;;;;;;8.15;4.88;;;14.50;66.70;;;;;;5019925;28;20335;-85
2022/04/24 01:32:33;;;;;;;7.85;4.95;;;14.40;66.50;;;;;;5002685;28;20044;-85
2022/04/24 01:35:00;;;;;;;6.68;5.07;;;14.40;66.80;;;;;;5016411;28;20488;-85
2022/04/24 01:37:26;;;;;;;7.43;5.13;;;14.40;67.10;;;;;;4999821;28;20034;-85
2022/04/24 01:39:55;;;;;;;9.00;5.35;;;14.30;67.40;;;;;;5033695;28;20036;-85
2022/04/24 01:42:20;;;;;;;7.53;5.50;;;14.30;67.50;;;;;;5015621;28;20040;-85
2022/04/24 01:44:46;;;;;;;6.65;5.35;;;14.30;67.80;;;;;;4999489;28;20404;-85
2022/04/24 01:47:12;;;;;;;6.43;5.05;;;14.20;67.90;;;;;;5032887;28;20389;-85
2022/04/24 01:49:38;;;;;;;6.80;5.18;;;14.20;68.20;;;;;;5013695;28;20033;-85
2022/04/24 01:52:07;;;;;;;7.47;4.97;;;14.20;68.40;;;;;;5013125;28;20470;-85
2022/04/24 01:54:33;;;;;;;7.90;5.13;;;14.20;68.70;;;;;;4995861;28;20069;-85
2022/04/24 01:56:58;;;;;;;6.75;5.68;;;14.20;68.70;;;;;;5013413;28;20417;-85
2022/04/24 01:59:24;;;;;;;7.68;5.65;;;14.10;68.50;;;;;;5013645;28;20524;-85
2022/04/24 02:01:50;;;;;;;8.18;5.85;;;14.10;68.60;;;;;;5013476;28;20050;-85
2022/04/24 02:04:18;;;;;;;8.00;5.53;;;14.00;68.80;;;;;;4979644;28;20037;-85
2022/04/24 02:06:44;;;;;;;9.40;5.60;;;14.10;69.10;;;;;;4980092;28;20080;-85
2022/04/24 02:09:10;;;;;;;9.45;5.22;;;14.00;69.10;;;;;;4995637;28;20034;-85
2022/04/24 02:11:36;;;;;;;7.25;5.45;;;14.00;69.10;;;;;;4979937;28;20069;-85
2022/04/24 02:14:02;;;;;;;7.32;5.95;;;14.00;69.40;;;;;;4979715;28;20030;-85
2022/04/24 02:16:28;;;;;;;8.68;5.95;;;13.90;69.80;;;;;;4995928;28;20033;-85
2022/04/24 02:18:53;;;;;;;7.63;5.75;;;13.90;70.00;;;;;;4995956;28;20026;-85
2022/04/24 02:21:19;;;;;;;10.02;6.28;;;13.90;70.20;;;;;;5013388;28;20026;-85
2022/04/24 02:23:45;;;;;;;10.32;6.05;;;13.80;70.40;;;;;;4979738;28;20119;-85
2022/04/24 02:26:10;;;;;;;8.32;5.35;;;13.80;70.70;;;;;;4995530;28;20091;-85
2022/04/24 02:28:36;;;;;;;7.68;5.63;;;13.80;70.80;;;;;;4982175;28;20041;-85
2022/04/24 02:31:02;;;;;;;8.55;6.03;;;13.80;71.00;;;;;;4983465;28;20113;-86
2022/04/24 02:33:27;;;;;;;7.43;5.85;;;13.70;71.00;;;;;;4999762;28;20385;-85
2022/04/24 02:35:53;;;;;;;8.98;5.95;;;13.70;71.20;;;;;;5017631;28;20030;-84
2022/04/24 02:38:19;;;;;;;7.55;5.50;;;13.70;71.40;;;;;;4983204;28;20033;-85
2022/04/24 02:40:44;;;;;;;8.07;6.32;;;13.70;71.50;;;;;;4999688;28;20034;-85
2022/04/24 02:43:10;;;;;;;7.88;5.75;;;13.60;71.60;;;;;;4999512;28;20030;-84
2022/04/24 02:45:35;;;;;;;8.32;5.90;;;13.60;71.70;;;;;;4999674;28;20444;-85
2022/04/24 02:48:03;;;;;;;8.52;6.20;;;13.60;72.00;;;;;;4999533;28;20408;-85
2022/04/24 02:50:28;;;;;;;9.18;6.45;;;13.60;72.10;;;;;;5017110;28;20018;-85
2022/04/24 02:52:55;;;;;;;7.40;5.93;;;13.60;72.10;;;;;;5017084;28;20096;-85
2022/04/24 02:55:22;;;;;;;9.48;5.68;;;13.50;72.20;;;;;;5016881;28;20466;-85
2022/04/24 02:57:48;;;;;;;9.65;5.40;;;13.50;72.40;;;;;;4999484;28;20030;-85
2022/04/24 03:00:24;;;;;;;7.10;5.30;;;13.40;72.40;;;;;;4983105;28;20113;-84
2022/04/24 03:02:50;;;;;;;8.85;6.00;;;13.40;72.70;;;;;;4999459;28;20053;-85
2022/04/24 03:05:19;;;;;;;7.90;5.65;;;13.40;73.00;;;;;;5016497;28;20030;-84
2022/04/24 03:07:45;;;;;;;7.32;5.63;;;13.40;73.20;;;;;;4999204;28;20049;-85
2022/04/24 03:10:11;;;;;;;10.73;5.22;;;13.40;73.30;;;;;;5016489;28;20030;-85
2022/04/24 03:12:38;;;;;;;8.65;5.90;;;13.30;73.30;;;;;;4998736;28;20018;-85
2022/04/24 03:15:05;;;;;;;7.88;5.25;;;13.30;73.30;;;;;;4982822;28;20429;-85
2022/04/24 03:17:34;;;;;;;8.60;5.47;;;13.30;73.50;;;;;;5016733;28;20045;-85
2022/04/24 03:20:04;;;;;;;7.18;5.05;;;13.30;73.50;;;;;;5016505;28;20026;-85
2022/04/24 03:22:30;;;;;;;8.95;5.03;;;13.20;73.20;;;;;;4998749;28;20470;-85
2022/04/24 03:24:57;;;;;;;7.85;5.32;;;13.20;73.50;;;;;;4998900;28;20385;-85
2022/04/24 03:27:23;;;;;;;7.22;5.30;;;13.20;73.40;;;;;;4998747;28;20125;-85
2022/04/24 03:29:49;;;;;;;8.45;6.07;;;13.10;73.80;;;;;;5016204;28;20118;-85
2022/04/24 03:32:15;;;;;;;7.38;5.78;;;13.10;73.80;;;;;;5015937;28;20029;-85
2022/04/24 03:34:40;;;;;;;7.00;5.40;;;13.10;73.90;;;;;;4998627;28;20033;-85
2022/04/24 03:37:06;;;;;;;6.85;5.20;;;13.10;73.90;;;;;;4998852;28;20084;-85
2022/04/24 03:39:32;;;;;;;8.82;5.40;;;13.10;73.90;;;;;;4998118;28;20117;-85
2022/04/24 03:41:58;;;;;;;9.98;5.43;;;13.00;74.10;;;;;;4998727;28;20030;-84
2022/04/24 03:44:24;;;;;;;7.93;5.18;;;13.00;74.90;;;;;;4998441;28;20041;-85
2022/04/24 03:46:49;;;;;;;10.27;5.13;;;12.90;74.40;;;;;;4998395;28;20561;-85
2022/04/24 03:49:16;;;;;;;9.63;5.00;;;12.90;74.60;;;;;;5016226;28;20371;-85
2022/04/24 03:51:42;;;;;;;8.35;4.95;;;12.90;74.80;;;;;;5016250;28;20069;-85
2022/04/24 03:54:07;;;;;;;7.88;5.07;;;12.90;74.70;;;;;;4982234;28;20034;-85
2022/04/24 03:56:33;;;;;;;7.13;4.82;;;12.80;74.70;;;;;;4998582;28;20034;-85
2022/04/24 03:58:59;;;;;;;5.93;4.68;;;12.80;75.00;;;;;;5017730;28;20358;-85
2022/04/24 04:01:25;;;;;;;7.57;4.90;;;12.80;74.90;;;;;;4982082;28;20026;-84
2022/04/24 04:03:51;;;;;;;7.53;5.43;;;12.80;75.20;;;;;;5019960;28;20084;-85
2022/04/24 04:06:17;;;;;;;8.88;5.45;;;12.70;75.20;;;;;;5002867;28;20034;-85
2022/04/24 04:08:42;;;;;;;7.88;5.10;;;12.70;75.20;;;;;;4998877;28;20025;-85
2022/04/24 04:11:08;;;;;;;6.68;5.00;;;12.70;75.30;;;;;;4997922;28;20092;-84
2022/04/24 04:13:34;;;;;;;8.40;4.90;;;12.70;75.50;;;;;;4998001;28;20030;-85
2022/04/24 04:16:00;;;;;;;7.70;5.32;;;12.70;75.60;;;;;;4997746;28;20046;-85
2022/04/24 04:18:26;;;;;;;6.75;4.95;;;12.70;75.70;;;;;;4997552;28;20022;-85
2022/04/24 04:20:52;;;;;;;7.78;5.28;;;12.60;75.50;;;;;;4997861;28;20097;-85
2022/04/24 04:23:17;;;;;;;8.10;4.97;;;12.60;75.50;;;;;;4997932;28;20445;-85
2022/04/24 04:25:43;;;;;;;7.18;4.38;;;12.60;75.60;;;;;;4981426;28;20021;-86
2022/04/24 04:28:09;;;;;;;6.30;5.00;;;12.50;75.50;;;;;;4997729;28;20397;-85
2022/04/24 04:30:35;;;;;;;7.28;4.45;;;12.50;75.60;;;;;;4981238;28;20029;-84
2022/04/24 04:33:00;;;;;;;6.88;4.80;;;12.50;75.80;;;;;;5015134;28;20092;-85
2022/04/24 04:35:26;;;;;;;5.97;4.45;;;12.50;75.90;;;;;;4997183;28;20409;-85
2022/04/24 04:37:52;;;;;;;6.78;4.50;;;12.50;76.10;;;;;;5015025;28;20060;-84
2022/04/24 04:40:20;;;;;;;7.50;4.80;;;12.40;76.10;;;;;;4997580;28;20026;-86
2022/04/24 04:42:46;;;;;;;7.00;4.80;;;12.40;76.10;;;;;;4997064;28;20030;-85
2022/04/24 04:45:12;;;;;;;7.90;4.78;;;12.40;76.00;;;;;;4997464;28;20160;-85
2022/04/24 04:47:37;;;;;;;7.05;4.88;;;12.40;75.90;;;;;;4997124;28;20436;-85
2022/04/24 04:50:04;;;;;;;7.70;4.70;;;12.30;76.00;;;;;;5013798;28;20034;-84
2022/04/24 04:52:29;;;;;;;6.43;4.40;;;12.30;76.20;;;;;;4996892;28;20348;-84
2022/04/24 04:54:55;;;;;;;6.38;4.13;;;12.30;76.40;;;;;;5014697;28;20030;-85
2022/04/24 04:57:21;;;;;;;7.47;4.25;;;12.30;76.50;;;;;;4980749;28;20041;-85
2022/04/24 04:59:46;;;;;;;7.70;4.55;;;12.30;76.50;;;;;;4997277;28;20030;-86
2022/04/24 05:02:12;;;;;;;6.57;4.68;;;12.30;76.60;;;;;;4980420;28;20046;-85
2022/04/24 05:04:38;;;;;;;5.70;4.28;;;12.20;76.70;;;;;;4996989;28;20037;-85
2022/04/24 05:07:04;;;;;;;8.10;4.32;;;12.20;76.80;;;;;;4980887;28;20441;-85
2022/04/24 05:09:30;;;;;;;7.28;4.65;;;12.20;77.00;;;;;;4980338;28;20033;-85
2022/04/24 05:11:56;;;;;;;7.13;4.65;;;12.20;77.20;;;;;;4980717;28;20032;-86
2022/04/24 05:14:21;;;;;;;6.63;4.32;;;12.10;77.30;;;;;;4996637;28;20381;-86
2022/04/24 05:16:47;;;;;;;5.43;4.03;;;12.10;77.30;;;;;;4980504;28;20041;-85
2022/04/24 05:19:12;;;;;;;6.55;4.40;;;12.20;77.40;;;;;;4996526;28;20065;-85
2022/04/24 05:21:38;;;;;;;6.13;4.00;;;12.10;77.40;;;;;;4996367;28;20456;-84
2022/04/24 05:24:04;;;;;;;7.82;4.80;;;12.10;77.40;;;;;;4980362;28;20034;-85
2022/04/24 05:26:31;;;;;;;5.40;4.15;;;12.10;77.30;;;;;;4996323;28;20057;-83
2022/04/24 05:28:57;;;;;;;6.30;4.68;;;12.10;77.50;;;;;;4996773;28;20030;-83
2022/04/24 05:31:22;;;;;;;6.75;4.25;;;12.10;77.60;;;;;;4996134;28;20030;-85
2022/04/24 05:33:48;;;;;;;8.57;4.50;;;12.00;77.60;;;;;;4980268;28;20030;-83
2022/04/24 05:36:13;;;;;;;6.18;3.97;;;12.00;77.60;;;;;;4996229;28;20371;-85
2022/04/24 05:38:39;;;;;;;7.32;4.00;;;12.00;77.70;;;;;;5013823;28;20026;-85
2022/04/24 05:41:05;;;;;;;6.50;4.10;;;12.00;77.70;;;;;;4996170;28;20030;-86
2022/04/24 05:43:31;;;;;;;5.68;4.00;;;12.00;78.40;;;;;;5013245;28;20375;-82
2022/04/24 05:45:57;;;;;;;8.75;4.10;;;12.00;77.90;;;;;;4996155;28;20058;-83
2022/04/24 05:48:22;;;;;;;7.57;4.43;;;12.00;78.00;;;;;;4996055;28;20079;-83
2022/04/24 05:50:48;;;;;;;5.90;4.03;;;12.00;78.00;;;;;;5013745;28;20030;-83
2022/04/24 05:53:14;;;;;;;5.25;4.10;;;12.00;78.10;;;;;;5013612;28;20041;-83
2022/04/24 05:55:40;;;;;;;5.93;3.97;;;12.00;78.10;;;;;;4996275;28;20041;-83
2022/04/24 05:58:06;;;;;;;5.65;4.18;;;12.10;78.20;;;;;;4979551;28;20065;-84
2022/04/24 06:00:31;;;;;;;7.38;4.18;;;12.00;78.00;;;;;;4979771;28;20092;-83
2022/04/24 06:02:57;;;;;;;6.13;3.83;;;12.00;78.10;;;;;;4995660;28;20058;-83
2022/04/24 06:05:23;;;;;;;6.95;4.32;;;12.00;78.00;;;;;;4979875;28;20029;-84
2022/04/24 06:07:49;;;;;;;5.40;4.03;;;12.00;78.00;;;;;;4979594;28;20033;-84
2022/04/24 06:10:15;;;;;;;6.47;4.03;;;12.00;77.90;;;;;;5013358;28;20434;-84
2022/04/24 06:12:45;;;;;;;5.82;3.95;;;12.00;77.70;;;;;;4995971;28;20037;-84
2022/04/24 06:15:15;;;;;;;6.10;3.95;;;12.10;78.00;;;;;;5013517;28;20026;-84
2022/04/24 06:17:46;;;;;;;6.60;4.43;;;12.10;77.90;;;;;;4996358;28;20362;-84
2022/04/24 06:20:13;;;;;;;7.18;4.75;;;12.10;77.80;;;;;;4995778;28;20030;-84
2022/04/24 06:22:58;;;;;;;5.57;4.00;;;12.10;77.70;;;;;;4995814;28;20117;-84
2022/04/24 06:25:31;;;;;;;6.28;4.25;;;12.10;77.70;;;;;;5013432;28;20034;-84
2022/04/24 06:27:57;;;;;;;6.40;4.07;;;12.10;77.70;;;;;;5013517;28;20034;-84
2022/04/24 06:30:25;;;;;;;5.90;4.13;;;12.10;77.90;;;;;;4996100;28;20474;-84
2022/04/24 06:32:51;;;;;;;5.78;3.88;;;12.10;78.20;;;;;;5012998;28;20029;-84
2022/04/24 06:35:18;;;;;;;5.95;4.00;;;12.20;78.00;;;;;;4995740;28;20022;-84
2022/04/24 06:37:45;;;;;;;7.85;4.00;;;12.20;78.10;;;;;;4979921;28;20355;-85
2022/04/24 06:40:13;;;;;;;7.97;4.32;;;12.20;78.20;;;;;;4996935;28;20026;-83
2022/04/24 06:42:55;;;;;;;8.38;4.32;;;12.30;78.30;;;;;;4979530;28;20080;-84
2022/04/24 06:45:29;;;;;;;5.47;4.10;;;12.30;78.00;;;;;;4995418;28;20026;-84
2022/04/24 06:47:56;;;;;;;5.43;3.70;;;12.30;78.00;;;;;;4995586;28;20045;-85
2022/04/24 06:50:22;;;;;;;7.35;4.45;;;12.30;78.10;;;;;;4995715;28;20474;-84
2022/04/24 06:53:05;;;;;;;9.95;4.70;;;12.40;78.20;;;;;;4995243;28;20033;-85
2022/04/24 06:55:37;;;;;;;6.30;3.80;;;12.40;77.90;;;;;;4995220;28;20087;-87
2022/04/24 06:58:04;;;;;;;7.65;4.13;;;12.50;77.90;;;;;;4995369;28;20051;-84
2022/04/24 07:00:31;;;;;;;8.05;4.45;;;12.50;78.10;;;;;;4995266;28;20022;-84
2022/04/24 07:02:57;;;;;;;12.70;4.65;;;12.50;78.30;;;;;;4995122;28;20050;-84
2022/04/24 07:05:24;;;;;;;6.43;4.00;;;12.60;78.30;;;;;;4995360;28;20484;-84
2022/04/24 07:07:50;;;;;;;5.45;4.20;;;12.70;78.20;;;;;;4979184;28;20038;-85
2022/04/24 07:10:16;;;;;;;5.50;3.83;;;12.70;77.80;;;;;;4995664;28;20508;-84
2022/04/24 07:12:52;;;;;;;7.22;4.05;;;12.70;78.00;;;;;;4995044;28;20026;-84
2022/04/24 07:15:20;;;;;;;7.05;4.50;;;12.80;78.10;;;;;;4999859;28;20026;-85
2022/04/24 07:17:46;;;;;;;6.07;4.18;;;12.90;78.00;;;;;;5016055;28;20041;-84
2022/04/24 07:20:15;;;;;;;6.20;4.63;;;12.90;78.40;;;;;;4982548;28;20029;-84
2022/04/24 07:22:46;;;;;;;5.47;4.18;;;13.00;78.10;;;;;;5016425;28;20022;-84
2022/04/24 07:25:13;;;;;;;6.72;4.63;;;13.10;78.00;;;;;;5015962;28;20026;-84
2022/04/24 07:27:39;;;;;;;5.88;4.13;;;13.10;77.90;;;;;;4998742;28;20034;-84
2022/04/24 07:30:13;;;;;;;6.13;4.07;;;13.20;78.10;;;;;;4998645;28;20041;-84
2022/04/24 07:32:44;;;;;;;5.90;4.50;;;13.30;78.30;;;;;;4983517;28;20052;-85
2022/04/24 07:35:13;;;;;;;7.97;4.20;;;13.40;78.10;;;;;;4998733;28;20030;-84
2022/04/24 07:37:39;;;;;;;6.43;3.88;;;13.40;78.00;;;;;;4998357;28;20026;-85
2022/04/24 07:40:09;;;;;;;5.75;4.10;;;13.50;78.20;;;;;;4998326;28;20124;-84
2022/04/24 07:42:52;;;;;;;4.72;3.70;;;13.60;78.40;;;;;;4998400;28;20029;-85
2022/04/24 07:45:26;;;;;;;5.72;4.05;;;13.70;78.30;;;;;;5021028;28;20021;-85
2022/04/24 07:47:54;;;;;;;7.15;4.00;;;13.80;78.00;;;;;;5031373;28;20516;-84
2022/04/24 07:50:22;;;;;;;7.25;4.03;;;13.90;77.80;;;;;;5007205;28;20411;-84
2022/04/24 07:52:48;;;;;;;4.80;3.72;;;14.00;77.80;;;;;;5027450;28;20034;-84
2022/04/24 07:55:19;;;;;;;6.32;3.78;;;14.10;77.80;;;;;;4995089;28;20032;-84
2022/04/24 07:57:49;;;;;;;5.47;3.70;;;14.20;77.60;;;;;;4994637;28;20458;-84
2022/04/24 08:00:17;;;;;;;6.90;4.20;;;14.20;77.60;;;;;;5024043;28;20048;-85
2022/04/24 08:02:56;;;;;;;6.82;4.40;;;14.30;77.20;;;;;;4986344;28;20512;-85
2022/04/24 08:05:29;;;;;;;6.05;4.30;;;14.40;76.90;;;;;;5027995;28;20466;-85
2022/04/24 08:07:56;;;;;;;5.35;3.97;;;14.50;76.90;;;;;;5002839;28;20079;-85
2022/04/24 08:10:25;;;;;;;6.57;3.53;;;14.60;77.10;;;;;;5024968;28;20021;-85
2022/04/24 08:12:51;;;;;;;6.40;4.75;;;14.70;76.80;;;;;;5026468;28;20511;-85
2022/04/24 08:15:17;;;;;;;6.57;4.20;;;14.80;76.80;;;;;;5019690;28;20068;-85
2022/04/24 08:17:43;;;;;;;6.18;4.20;;;14.90;75.10;;;;;;5006228;28;20018;-85
2022/04/24 08:20:10;;;;;;;5.60;4.03;;;15.00;74.30;;;;;;5020562;28;20055;-85
2022/04/24 08:22:50;;;;;;;7.35;4.38;;;15.10;74.40;;;;;;5006304;28;20109;-84
2022/04/24 08:25:26;;;;;;;5.40;4.10;;;15.20;74.70;;;;;;5010604;28;20025;-85
2022/04/24 08:27:55;;;;;;;6.63;4.50;;;15.30;74.90;;;;;;5034987;28;20037;-85
2022/04/24 08:30:23;;;;;;;7.18;4.20;;;15.40;75.20;;;;;;5017289;28;20029;-84
2022/04/24 08:32:49;;;;;;;6.15;4.45;;;15.50;75.30;;;;;;5034775;28;20022;-85
2022/04/24 08:35:17;;;;;;;6.05;4.00;;;15.60;75.20;;;;;;5000787;28;20120;-85
2022/04/24 08:37:44;;;;;;;6.82;4.30;;;15.70;75.90;;;;;;5016852;28;20457;-86
2022/04/24 08:40:12;;;;;;;7.07;4.13;;;15.80;75.10;;;;;;5017642;28;20025;-85
2022/04/24 08:42:39;;;;;;;6.93;4.43;;;15.90;74.30;;;;;;5016931;28;20108;-87
2022/04/24 08:45:07;;;;;;;6.45;4.35;;;16.00;75.20;;;;;;5034175;28;20025;-84
2022/04/24 08:47:32;;;;;;;7.40;4.65;;;16.10;75.20;;;;;;5013346;28;20053;-85
2022/04/24 08:50:00;;;;;;;6.68;4.30;;;16.20;74.50;;;;;;5013773;28;20444;-86
2022/04/24 08:52:27;;;;;;;6.30;4.63;;;16.30;74.30;;;;;;5023322;28;20022;-86
2022/04/24 08:54:54;;;;;;;7.28;5.05;;;16.40;74.00;;;;;;5000907;28;20373;-85
2022/04/24 08:57:22;;;;;;;7.07;4.22;;;16.50;73.10;;;;;;4997737;28;20129;-86
2022/04/24 08:59:47;;;;;;;5.78;4.30;;;16.60;72.40;;;;;;4998689;28;20058;-84
2022/04/24 09:02:14;;;;;;;5.95;4.75;;;16.60;72.20;;;;;;4982960;28;20107;-87
2022/04/24 09:04:40;;;;;;;8.25;4.28;;;16.70;72.80;;;;;;4998995;28;20040;-87
2022/04/24 09:07:08;;;;;;;8.07;4.97;;;16.80;72.80;;;;;;4998065;28;20029;-84
2022/04/24 09:09:48;;;;;;;6.63;4.18;;;16.90;72.10;;;;;;4981517;28;20053;-85
2022/04/24 09:12:15;;;;;;;7.43;4.13;;;17.00;72.60;;;;;;4990222;28;20125;-84
2022/04/24 09:14:48;;;;;;;6.43;4.53;;;17.10;72.90;;;;;;5004700;28;20041;-85
2022/04/24 09:17:25;;;;;;;6.43;4.40;;;17.10;72.90;;;;;;5015152;28;20034;-87
2022/04/24 09:19:52;;;;;;;5.72;4.38;;;17.30;73.20;;;;;;4997113;28;20203;-85
2022/04/24 09:22:18;;;;;;;8.60;4.53;;;17.30;73.10;;;;;;4981041;28;20103;-85
2022/04/24 09:24:54;;;;;;;6.90;4.47;;;17.40;72.40;;;;;;4998159;28;20064;-88
2022/04/24 09:27:27;;;;;;;5.88;4.13;;;17.50;71.80;;;;;;4994705;28;20382;-84
2022/04/24 09:30:14;;;;;;;5.75;4.38;;;17.50;71.60;;;;;;4980687;28;20449;-83
2022/04/24 09:32:55;;;;;;;5.90;4.65;;;17.60;72.00;;;;;;4980982;28;20381;-84
2022/04/24 09:35:33;;;;;;;;;;;17.70;71.40;;;;;;4981364;28;20040;-83
2022/04/24 09:38:10;;;;;;;6.60;4.40;;;17.70;71.60;;;;;;4996318;28;20418;-84
2022/04/24 09:40:44;;;;;;;7.47;4.22;;;17.80;71.60;;;;;;4980519;28;20030;-84
2022/04/24 09:43:11;;;;;;;6.07;4.40;;;17.80;71.40;;;;;;4996791;28;20058;-84
2022/04/24 09:45:47;;;;;;;6.35;4.40;;;17.80;71.10;;;;;;4996547;28;20034;-84
2022/04/24 09:48:14;;;;;;;7.85;5.28;;;18.00;70.20;;;;;;4997237;28;20112;-85
2022/04/24 09:50:41;;;;;;;6.97;4.40;;;18.00;70.00;;;;;;4996486;28;20462;-85
2022/04/24 09:53:08;;;;;;;5.80;4.50;;;18.10;70.40;;;;;;4996008;28;20029;-87
2022/04/24 09:55:34;;;;;;;7.05;4.88;;;18.10;69.20;;;;;;4980752;28;20442;-86
2022/04/24 09:58:02;;;;;;;6.32;4.50;;;18.20;68.00;;;;;;4996593;28;20030;-87
2022/04/24 10:00:28;;;;;;;5.28;4.03;;;18.20;67.90;;;;;;4996554;28;20092;-86
2022/04/24 10:02:55;;;;;;;7.07;4.32;;;18.30;67.90;;;;;;4999924;28;20057;-87
2022/04/24 10:05:20;;;;;;;5.85;3.90;;;18.40;68.00;;;;;;5033850;28;20070;-87
2022/04/24 10:07:46;;;;;;;5.53;4.05;;;18.40;68.60;;;;;;5012140;28;20434;-84
2022/04/24 10:10:14;;;;;;;6.60;4.20;;;18.50;68.60;;;;;;5001864;28;20050;-84
2022/04/24 10:12:43;;;;;;;6.22;4.65;;;18.60;68.20;;;;;;5007929;28;20028;-83
2022/04/24 10:15:14;;;;;;;5.95;3.95;;;18.70;66.60;;;;;;5020879;28;20525;-84
2022/04/24 10:18:08;;;;;;;5.65;3.67;;;18.70;65.90;;;;;;5026119;28;20152;-84
2022/04/24 10:20:58;;;;;;;7.15;4.20;;;18.80;66.30;;;;;;5015924;28;20041;-84
2022/04/24 10:23:33;;;;;;;4.47;3.65;;;18.80;66.70;;;;;;5025194;28;20132;-84
2022/04/24 10:25:59;;;;;;;7.93;3.92;;;18.90;66.80;;;;;;5005645;28;20052;-84
2022/04/24 10:28:36;;;;;;;8.63;4.47;;;19.00;66.90;;;;;;5002682;28;20030;-84
2022/04/24 10:31:03;;;;;;;5.13;3.85;;;19.00;66.00;;;;;;5015211;28;20454;-85
2022/04/24 10:33:32;;;;;;;7.03;4.03;;;19.10;64.90;;;;;;5012438;28;20523;-84
2022/04/24 10:35:59;;;;;;;5.47;4.20;;;19.10;63.00;;;;;;5000279;28;20031;-84
2022/04/24 10:38:26;;;;;;;6.10;4.13;;;19.10;62.50;;;;;;4992568;28;20018;-84
2022/04/24 10:41:06;;;;;;;5.80;3.72;;;19.10;62.00;;;;;;5021634;28;20068;-85
2022/04/24 10:43:40;;;;;;;5.30;3.53;;;19.20;62.20;;;;;;5029613;28;20060;-84
2022/04/24 10:46:20;;;;;;;6.28;3.78;;;19.30;62.60;;;;;;5014909;28;20141;-84
2022/04/24 10:48:47;;;;;;;6.70;3.53;;;19.30;62.40;;;;;;5016421;28;20018;-83
2022/04/24 10:51:13;;;;;;;6.72;4.28;;;19.40;62.40;;;;;;5018972;28;20299;-84
2022/04/24 10:54:05;;;;;;;5.80;3.53;;;19.50;61.80;;;;;;5018855;28;20030;-84
2022/04/24 10:56:32;;;;;;;6.65;4.00;;;19.50;62.10;;;;;;5037080;28;20036;-84
2022/04/24 10:59:12;;;;;;;6.40;3.88;;;19.60;60.80;;;;;;5036472;28;20024;-85
2022/04/24 11:01:48;;;;;;;5.40;3.70;;;19.60;60.10;;;;;;5036292;28;20033;-84
2022/04/24 11:04:15;;;;;;;5.22;3.60;;;19.70;60.50;;;;;;5018473;28;20072;-83
2022/04/24 11:07:04;;;;;;;4.90;3.22;;;19.70;60.40;;;;;;5018600;28;20068;-85
2022/04/24 11:09:31;;;;;;;4.65;3.50;;;19.70;60.30;;;;;;4988386;28;20458;-83
2022/04/24 11:12:04;;;;;;;6.45;3.83;;;19.80;60.80;;;;;;5022800;28;20401;-85
2022/04/24 11:14:30;;;;;;;4.68;3.25;;;19.90;60.90;;;;;;5015347;28;20437;-85
2022/04/24 11:16:58;;;;;;;4.90;3.40;;;20.00;61.10;;;;;;5035822;28;20480;-85
2022/04/24 11:19:42;;;;;;;4.72;3.50;;;20.00;60.90;;;;;;5018124;28;20519;-85
2022/04/24 11:22:11;;;;;;;5.40;3.60;;;20.10;60.30;;;;;;5018353;28;20109;-84
2022/04/24 11:24:39;;;;;;;7.00;3.45;;;20.20;60.00;;;;;;5036110;28;20128;-83
2022/04/24 11:27:14;;;;;;;5.03;3.42;;;20.20;59.30;;;;;;5001536;28;20038;-84
2022/04/24 11:29:43;;;;;;;7.53;3.35;;;20.30;59.00;;;;;;5017973;28;20025;-83
2022/04/24 11:32:09;;;;;;;6.82;3.30;;;20.30;59.10;;;;;;5035047;28;20030;-83
2022/04/24 11:34:36;;;;;;;4.70;3.47;;;20.40;59.60;;;;;;5018263;28;20412;-84
2022/04/24 11:37:04;;;;;;;5.07;3.20;;;20.50;59.30;;;;;;5035389;28;20473;-84
2022/04/24 11:39:31;;;;;;;6.40;3.45;;;20.60;58.20;;;;;;5036133;28;20491;-82
2022/04/24 11:41:58;;;;;;;6.75;3.33;;;20.60;58.00;;;;;;5036338;28;20056;-84
2022/04/24 11:50:14;;;;;;;4.15;3.13;;;20.80;58.20;;;;;;5034801;28;20032;-81
2022/04/24 11:52:41;;;;;;;5.03;3.10;;;20.90;58.60;;;;;;5011300;28;20034;-80
2022/04/24 11:56:01;;;;;;;4.78;3.05;;;21.00;58.40;;;;;;5014293;28;20317;-81
2022/04/24 11:58:12;;;;;;;5.10;2.92;;;21.10;58.40;;;;;;5032560;28;20033;-81
2022/04/24 12:00:38;;;;;;;4.55;3.10;;;21.20;58.70;;;;;;5017273;28;20039;-81
2022/04/24 12:03:07;;;;;;;4.57;3.30;;;21.20;58.00;;;;;;5035313;28;20507;-86
2022/04/24 12:05:33;;;;;;;4.88;3.35;;;21.30;57.00;;;;;;5035318;28;20128;-79
2022/04/24 12:08:00;;;;;;;6.00;3.22;;;21.30;56.10;;;;;;5034052;28;20525;-80
2022/04/24 12:10:26;;;;;;;7.30;3.70;;;21.40;55.50;;;;;;5015356;28;20021;-80
2022/04/24 12:12:53;;;;;;;5.78;3.17;;;21.40;55.40;;;;;;5031828;28;20075;-81
2022/04/24 12:15:22;;;;;;;5.10;3.20;;;21.40;55.10;;;;;;5016801;28;20028;-84
2022/04/24 12:18:06;;;;;;;5.05;3.15;;;21.50;55.50;;;;;;5032239;28;20044;-83
2022/04/24 12:20:40;;;;;;;7.88;3.58;;;21.50;55.40;;;;;;5026998;28;20393;-81
2022/04/24 12:23:14;;;;;;;3.95;3.13;;;21.60;55.20;;;;;;5010763;28;20052;-87
2022/04/24 12:25:59;;;;;;;5.78;3.00;;;21.60;54.30;;;;;;5000807;28;20509;-80
2022/04/24 12:28:35;;;;;;;4.55;2.80;;;21.70;54.50;;;;;;5000290;28;20026;-80
2022/04/24 12:31:03;;;;;;;6.57;3.08;;;21.80;54.50;;;;;;4999972;28;20448;-84
2022/04/24 12:33:32;;;;;;;4.00;2.72;;;21.80;52.80;;;;;;5014909;28;20030;-83
2022/04/24 12:36:13;;;;;;;6.15;3.00;;;21.90;52.50;;;;;;4998631;28;20033;-85
2022/04/24 12:38:40;;;;;;;5.25;2.63;;;22.00;52.50;;;;;;4998616;28;20068;-84
2022/04/24 12:41:11;;;;;;;4.82;2.83;;;22.00;52.70;;;;;;4998147;28;20034;-84
2022/04/24 12:43:37;;;;;;;6.35;2.97;;;22.10;53.60;;;;;;5015463;28;20049;-84
2022/04/24 12:46:05;;;;;;;3.10;2.63;;;22.10;53.50;;;;;;4997952;28;20034;-84
2022/04/24 12:48:30;;;;;;;5.18;2.90;;;22.10;53.20;;;;;;5015296;28;20022;-84
2022/04/24 12:50:56;;;;;;;3.97;2.80;;;22.20;53.10;;;;;;4997629;28;20036;-86
2022/04/24 12:53:23;;;;;;;6.32;3.15;;;22.20;53.00;;;;;;5017932;28;20199;-84
2022/04/24 12:55:52;;;;;;;5.80;3.50;;;22.10;52.00;;;;;;4978608;28;20494;-86
2022/04/24 12:58:19;;;;;;;5.28;3.03;;;22.20;51.80;;;;;;4977633;28;20030;-85
2022/04/24 13:00:45;;;;;;;4.50;2.97;;;22.10;51.50;;;;;;4978183;28;20026;-85